Data for 07/16/2017

Time Sea-Level Adjusted Pressure Absolute Pressure Temperature Relative Humidity Dew Point   
(mb) (inHg) (mb) (inHg) (C) (F) (%) (C) (F)
00:05 1022 30.18 851 25.13 19.9 67.8 54 10.4 50.7
00:10 1022 30.18 851 25.13 19.8 67.6 53 10 50
00:15 1022 30.18 851 25.13 19.8 67.6 53 10 49.9
00:20 1022 30.18 851 25.13 19.7 67.4 54 10.2 50.3
00:25 1022 30.18 851 25.13 19.4 66.9 54 10 50
00:30 1022 30.18 851 25.13 19.2 66.6 55 10 50.1
00:35 1022 30.18 851 25.13 19.1 66.3 55 10 50.1
00:40 1022 30.18 851 25.13 18.8 65.8 56 10 50
00:45 1022 30.18 851 25.13 18.8 65.8 55 9.8 49.6
00:50 1022 30.18 851 25.13 18.7 65.7 57 10.2 50.3
00:55 1022 30.18 851 25.13 18.4 65.1 59 10.4 50.7
01:00 1022 30.18 851 25.13 18.1 64.6 60 10.2 50.4
01:05 1022 30.18 851 25.13 18.1 64.6 60 10.3 50.6
01:10 1022 30.18 851 25.13 18 64.4 61 10.5 50.9
01:15 1022 30.18 851 25.13 17.8 64 62 10.5 50.9
01:20 1022 30.18 851 25.13 17.7 63.9 62 10.5 50.9
01:25 1022 30.18 851 25.13 17.7 63.9 62 10.5 51
01:30 1022 30.18 851 25.13 17.7 63.8 63 10.6 51.1
01:35 1022 30.18 851 25.13 17.5 63.5 63 10.6 51
01:40 1022 30.18 851 25.13 17.4 63.4 64 10.6 51
01:45 1022 30.18 851 25.13 17.3 63.1 64 10.6 51.1
01:50 1022 30.18 851 25.13 17.3 63.1 64 10.6 51
01:55 1022 30.18 851 25.13 17.2 62.9 65 10.7 51.2
02:00 1022 30.18 851 25.13 16.9 62.4 67 10.8 51.4
02:05 1022 30.18 851 25.13 16.6 61.9 67 10.6 51.1
02:10 1022 30.18 851 25.13 16.5 61.8 67 10.5 50.8
02:15 1022 30.18 851 25.13 16.5 61.6 67 10.4 50.8
02:20 1022 30.18 851 25.13 16.3 61.3 68 10.5 50.9
02:25 1022 30.18 851 25.13 16.1 61 69 10.5 51
02:30 1022 30.18 851 25.13 15.9 60.6 70 10.4 50.8
02:35 1022 30.18 851 25.13 15.9 60.6 71 10.6 51.1
02:40 1022 30.18 851 25.13 15.7 60.2 71 10.6 51.1
02:45 1022 30.18 851 25.13 15.7 60.2 71 10.5 51
02:50 1022 30.18 851 25.13 15.7 60.3 71 10.6 51.1
02:55 1022 30.18 851 25.13 15.6 60 72 10.6 51
03:00 1022 30.18 851 25.13 15.5 60 72 10.6 51
03:05 1022 30.18 851 25.13 15.7 60.3 70 10.3 50.5
03:10 1022 30.18 851 25.13 15.9 60.7 70 10.5 50.9
03:15 1022 30.18 851 25.13 15.8 60.5 69 10.3 50.5
03:20 1022 30.18 851 25.13 15.9 60.7 69 10.4 50.7
03:25 1022 30.18 851 25.13 15.8 60.4 70 10.4 50.7
03:30 1021 30.15 851 25.13 15.7 60.2 71 10.4 50.7
03:35 1021 30.15 851 25.13 15.4 59.6 71 10.2 50.4
03:40 1021 30.15 851 25.13 15.2 59.4 72 10.2 50.3
03:45 1021 30.15 851 25.13 15.2 59.4 71 10.1 50.1
03:50 1021 30.15 851 25.13 15.3 59.5 70 9.9 49.8
03:55 1021 30.15 851 25.13 15.5 59.9 69 10 49.9
04:00 1021 30.15 851 25.13 15.3 59.5 70 9.9 49.8
04:05 1021 30.15 850 25.1 15.3 59.6 69 9.6 49.3
04:10 1021 30.15 850 25.1 15.6 60 69 9.9 49.8
04:15 1021 30.15 850 25.1 15.5 59.9 69 10 49.9
04:20 1021 30.15 850 25.1 15.4 59.7 69 9.8 49.7
04:25 1021 30.15 850 25.1 15.1 59.2 71 10 49.9
04:30 1021 30.15 850 25.1 14.9 58.8 72 9.9 49.8
04:35 1021 30.15 850 25.1 14.9 58.8 70 9.6 49.3
04:40 1021 30.15 851 25.13 15.1 59.1 70 9.7 49.4
04:45 1021 30.15 851 25.13 15.3 59.5 67 9.3 48.7
04:50 1021 30.15 851 25.13 15.9 60.7 64 9.3 48.7
04:55 1021 30.15 851 25.13 16.1 61 62 8.9 48
05:00 1021 30.15 851 25.13 16.1 61 63 9.3 48.7
05:05 1021 30.15 851 25.13 16 60.8 64 9.2 48.5
05:10 1021 30.15 851 25.13 16.1 61 64 9.4 49
05:15 1021 30.15 851 25.13 15.6 60.2 67 9.6 49.3
05:20 1021 30.15 851 25.13 15.5 59.8 66 9.3 48.7
05:25 1022 30.18 851 25.13 15.7 60.2 66 9.3 48.7
05:30 1022 30.18 851 25.13 16 60.7 63 8.9 48
05:35 1022 30.18 851 25.13 16.2 61.1 63 9.1 48.4
05:40 1022 30.18 851 25.13 16.4 61.6 61 9.1 48.4
05:45 1021 30.15 851 25.13 16.5 61.7 62 9.2 48.6
05:50 1021 30.15 851 25.13 16.6 61.9 62 9.3 48.7
05:55 1021 30.15 851 25.13 16.7 62.1 61 9.2 48.6
06:00 1021 30.15 851 25.13 16.9 62.4 61 9.5 49
06:05 1021 30.15 851 25.13 16.9 62.4 61 9.4 48.9
06:10 1021 30.15 851 25.13 17.1 62.8 61 9.5 49.1
06:15 1021 30.15 851 25.13 17.3 63.1 61 9.9 49.8
06:20 1021 30.15 851 25.13 17.1 62.8 62 9.9 49.9
06:25 1021 30.15 851 25.13 16.7 62 65 10 50.1
06:30 1021 30.15 851 25.13 16.5 61.7 65 10.1 50.1
06:35 1021 30.15 851 25.13 16.5 61.6 66 10.1 50.2
06:40 1021 30.15 851 25.13 16.7 62 64 9.9 49.8
06:45 1021 30.15 851 25.13 16.9 62.4 64 10.1 50.2
06:50 1021 30.15 851 25.13 17.2 63 62 9.9 49.9
06:55 1021 30.15 851 25.13 17.7 63.8 60 9.9 49.8
07:00 1021 30.15 851 25.13 17.8 64.1 59 9.8 49.7
07:05 1021 30.15 851 25.13 18.4 65.1 58 10.1 50.2
07:10 1021 30.15 851 25.13 18.7 65.6 57 10.1 50.3
07:15 1021 30.15 851 25.13 18.8 65.8 56 10 50
07:20 1021 30.15 851 25.13 19.5 67.1 53 9.7 49.4
07:25 1021 30.15 851 25.13 20.1 68.2 53 10.3 50.5
07:30 1021 30.15 851 25.13 19.4 66.8 55 10.3 50.5
07:35 1021 30.15 851 25.13 19.1 66.4 55 10 50
07:40 1021 30.15 851 25.13 19.7 67.4 51 9.4 48.9
07:45 1021 30.15 851 25.13 20.6 69 49 9.5 49.1
07:50 1021 30.15 851 25.13 20.9 69.6 48 9.7 49.4
07:55 1021 30.15 850 25.1 20.6 69 51 10.1 50.2
08:00 1021 30.15 850 25.1 20.3 68.5 51 9.9 49.8
08:05 1021 30.15 850 25.1 20.4 68.6 50 9.6 49.2
08:10 1021 30.15 850 25.1 21.2 70.2 48 9.8 49.6
08:15 1021 30.15 850 25.1 21.3 70.4 48 10.1 50.1
08:20 1021 30.15 850 25.1 21.3 70.3 47 9.6 49.2
08:25 1021 30.15 850 25.1 22.1 71.7 45 9.7 49.4
08:30 1021 30.15 850 25.1 22.5 72.4 46 10.4 50.7
08:35 1021 30.15 850 25.1 22.1 71.7 47 10.3 50.5
08:40 1021 30.15 850 25.1 22.3 72.1 46 10.2 50.4
08:45 1021 30.15 850 25.1 22.6 72.7 45 10.4 50.8
08:50 1021 30.15 850 25.1 23.1 73.6 45 10.7 51.2
08:55 1021 30.15 850 25.1 22.8 73.1 45 10.5 50.9
09:00 1021 30.15 850 25.1 22.9 73.2 48 11.6 53
09:05 1021 30.15 850 25.1 23.1 73.5 47 11.4 52.6
09:10 1021 30.15 850 25.1 23.4 74.2 46 11.3 52.4
09:15 1021 30.15 850 25.1 23.2 73.7 49 12.1 53.9
09:20 1021 30.15 850 25.1 21.9 71.3 49 11 51.8
09:25 1021 30.15 850 25.1 22.2 71.9 46 10.2 50.3
09:30 1021 30.15 850 25.1 23.1 73.6 46 11 51.8
09:35 1021 30.15 850 25.1 24.2 75.5 41 10.2 50.3
09:40 1021 30.15 850 25.1 24.5 76.1 40 10.1 50.3
09:45 1021 30.15 850 25.1 24.2 75.5 43 11 51.8
09:50 1021 30.15 850 25.1 23.6 74.5 42 10.3 50.5
09:55 1021 30.15 850 25.1 23.9 75.1 42 10.5 50.9
10:00 1020 30.12 850 25.1 23.9 75.1 42 10.6 51.1
10:05 1020 30.12 850 25.1 24.5 76.2 41 10.7 51.3
10:10 1020 30.12 850 25.1 25 77 40 10.5 50.9
10:15 1020 30.12 850 25.1 25.4 77.7 37 9.9 49.8
10:20 1020 30.12 849 25.07 25.8 78.5 36 9.9 49.9
10:25 1020 30.12 849 25.07 26 78.8 37 10.3 50.6
10:30 1020 30.12 849 25.07 26.7 80.1 34 9.9 49.8
10:35 1020 30.12 849 25.07 26 78.8 35 9.6 49.3
10:40 1020 30.12 849 25.07 26.6 79.9 34 9.7 49.4
10:45 1020 30.12 849 25.07 26.7 80.1 34 9.9 49.8
10:50 1020 30.12 849 25.07 26.4 79.4 35 9.9 49.8
10:55 1020 30.12 849 25.07 25.9 78.7 36 10.1 50.2
11:00 1020 30.12 849 25.07 26.6 79.8 34 9.6 49.2
11:05 1020 30.12 849 25.07 26.9 80.4 34 9.9 49.8
11:10 1020 30.12 849 25.07 27.9 82.1 32 10.1 50.2
11:15 1020 30.12 849 25.07 27.8 82.1 32 9.9 49.9
11:20 1020 30.12 849 25.07 27.4 81.3 33 10 49.9
11:25 1020 30.12 849 25.07 28 82.5 32 10 50.1
11:30 1020 30.12 849 25.07 28.4 83.1 32 10.5 51
11:35 1020 30.12 849 25.07 27.5 81.4 31 9.3 48.8
11:40 1020 30.12 849 25.07 27.8 82 32 9.8 49.7
11:45 1019 30.09 849 25.07 28.4 83.2 30 9.6 49.3
11:50 1019 30.09 849 25.07 28.3 83 30 9.2 48.6
11:55 1019 30.09 848 25.04 28.9 84.1 28 9.1 48.5
12:00 1019 30.09 849 25.07 29.4 84.8 27 8.9 48.1
12:05 1019 30.09 848 25.04 29.6 85.2 27 9 48.2
12:10 1019 30.09 849 25.07 29.1 84.5 30 10.2 50.3
12:15 1019 30.09 849 25.07 28.6 83.4 30 9.8 49.6
12:20 1019 30.09 848 25.04 28.4 83 30 9.4 48.9
12:25 1019 30.09 848 25.04 27.7 81.8 32 9.8 49.7
12:30 1019 30.09 848 25.04 27.1 80.8 30 8.6 47.4
12:35 1019 30.09 848 25.04 27.4 81.2 31 9.1 48.3
12:40 1019 30.09 848 25.04 28.7 83.6 28 8.8 47.8
12:45 1019 30.09 848 25.04 28.9 84.1 28 8.7 47.6
12:50 1019 30.09 848 25.04 29.5 85 27 8.6 47.5
12:55 1019 30.09 848 25.04 30.1 86.2 25 8.4 47.2
13:00 1019 30.09 848 25.04 30.3 86.5 25 8.7 47.6
13:05 1019 30.09 848 25.04 30.3 86.5 26 9 48.2
13:10 1019 30.09 848 25.04 30.4 86.8 25 8.5 47.2
13:15 1019 30.09 848 25.04 31 87.8 25 9 48.2
13:20 1019 30.09 848 25.04 30.8 87.4 25 8.8 47.9
13:25 1019 30.09 848 25.04 30.4 86.8 25 8.6 47.5
13:30 1019 30.09 848 25.04 29.9 85.8 26 8.8 47.9
13:35 1019 30.09 848 25.04 29.3 84.7 25 7.6 45.7
13:40 1018 30.06 848 25.04 30.2 86.4 24 7.8 46
13:45 1018 30.06 848 25.04 31 87.7 24 8.1 46.7
13:50 1018 30.06 847 25.01 30.7 87.3 23 7.5 45.5
13:55 1018 30.06 847 25.01 30.8 87.4 23 7.5 45.6
14:00 1018 30.06 848 25.04 31.1 88 22 7.6 45.6
14:05 1018 30.06 848 25.04 30.9 87.7 23 7.8 46
14:10 1018 30.06 848 25.04 30.6 87 23 7.6 45.7
14:15 1018 30.06 847 25.01 30.1 86.2 26 8.7 47.6
14:20 1018 30.06 847 25.01 29.9 85.7 25 8.3 46.9
14:25 1018 30.06 847 25.01 29.9 85.9 26 8.9 48
14:30 1018 30.06 847 25.01 29.7 85.4 26 8.2 46.8
14:35 1018 30.06 847 25.01 29.3 84.7 29 9.5 49.2
14:40 1018 30.06 847 25.01 29.6 85.4 28 9.3 48.7
14:45 1018 30.06 847 25.01 29.3 84.7 26 8.4 47.1
14:50 1018 30.06 847 25.01 28.9 84 29 9.5 49.1
14:55 1018 30.06 847 25.01 28.4 83.2 30 9.6 49.2
15:00 1018 30.06 847 25.01 28.6 83.5 29 9.4 48.8
15:05 1018 30.06 847 25.01 28.9 84.1 28 8.8 47.9
15:10 1018 30.06 847 25.01 29 84.2 32 10.8 51.4
15:15 1018 30.06 847 25.01 28.3 82.9 33 10.6 51.1
15:20 1018 30.06 847 25.01 27.8 82 33 10.5 50.9
15:25 1018 30.06 847 25.01 27.8 82 33 10.4 50.7
15:30 1018 30.06 847 25.01 27.8 82 33 10.4 50.7
15:35 1018 30.06 847 25.01 28 82.4 31 9.8 49.6
15:40 1018 30.06 847 25.01 28.5 83.3 32 10.5 50.8
15:45 1017 30.03 847 25.01 28.3 83 31 9.8 49.7
15:50 1017 30.03 847 25.01 28.3 82.9 28 8.1 46.6
15:55 1017 30.03 846 24.98 28.5 83.3 29 8.9 47.9
16:00 1017 30.03 846 24.98 28.7 83.6 29 9.1 48.3
16:05 1017 30.03 846 24.98 28.6 83.4 27 8 46.4
16:10 1017 30.03 846 24.98 28.6 83.4 27 8.2 46.7
16:15 1017 30.03 846 24.98 28.6 83.5 27 8.3 47
16:20 1017 30.03 846 24.98 28.5 83.2 28 8.5 47.3
16:25 1017 30.03 846 24.98 28.2 82.7 28 8.2 46.8
16:30 1017 30.03 846 24.98 27.7 81.8 28 8 46.4
16:35 1017 30.03 846 24.98 27.5 81.4 30 8.5 47.2
16:40 1017 30.03 846 24.98 27.4 81.4 28 7.7 45.8
16:45 1017 30.03 846 24.98 27.3 81.1 28 7.5 45.5
16:50 1017 30.03 846 24.98 27.1 80.8 28 7.4 45.4
16:55 1017 30.03 846 24.98 27.1 80.8 29 7.7 45.9
17:00 1017 30.03 846 24.98 27 80.7 30 8 46.5
17:05 1017 30.03 846 24.98 26.8 80.3 32 8.9 48
17:10 1017 30.03 846 24.98 26.6 79.9 34 9.6 49.4
17:15 1017 30.03 846 24.98 26.4 79.4 35 10.1 50.1
17:20 1017 30.03 846 24.98 26 78.7 36 10 50
17:25 1017 30.03 846 24.98 25.8 78.5 36 9.8 49.6
17:30 1017 30.03 846 24.98 25.6 78 35 9.4 48.9
17:35 1017 30.03 846 24.98 25.3 77.5 35 9.1 48.3
17:40 1017 30.03 846 24.98 25 77.1 33 8 46.5
17:45 1017 30.03 846 24.98 24.8 76.7 34 8.1 46.7
17:50 1017 30.03 846 24.98 24.7 76.5 35 8.3 47
17:55 1017 30.03 846 24.98 24.9 76.8 31 7 44.6
18:00 1017 30.03 846 24.98 25.1 77.3 33 7.9 46.2
18:05 1017 30.03 846 24.98 24.9 76.8 33 7.7 45.8
18:10 1017 30.03 846 24.98 24.8 76.6 32 7 44.6
18:15 1017 30.03 846 24.98 25.2 77.4 29 6.3 43.3
18:20 1017 30.03 846 24.98 24.7 76.5 34 7.9 46.1
18:25 1017 30.03 846 24.98 24.3 75.7 32 6.8 44.3
18:30 1017 30.03 847 25.01 24.9 76.8 30 6.5 43.8
18:35 1017 30.03 847 25.01 25 77 32 7.2 45
18:40 1017 30.03 847 25.01 24.9 76.8 31 6.9 44.5
18:45 1017 30.03 847 25.01 24.4 75.8 36 8.6 47.5
18:50 1017 30.03 847 25.01 23.7 74.6 35 7.4 45.3
18:55 1017 30.03 847 25.01 23.2 73.8 37 8.1 46.5
19:00 1017 30.03 847 25.01 22.5 72.5 40 8.4 47.2
19:05 1017 30.03 847 25.01 22.2 71.9 37 7 44.6
19:10 1017 30.03 847 25.01 22.3 72.2 37 7.2 45
19:15 1017 30.03 847 25.01 22.2 71.9 38 7.4 45.4
19:20 1017 30.03 847 25.01 22.1 71.8 37 7.1 44.7
19:25 1017 30.03 847 25.01 22.1 71.8 37 6.7 44.1
19:30 1017 30.03 847 25.01 22.3 72.1 35 6.4 43.6
19:35 1017 30.03 847 25.01 22.5 72.5 35 6.5 43.8
19:40 1017 30.03 847 25.01 22.3 72.1 36 6.5 43.8
19:45 1017 30.03 846 24.98 22.4 72.3 33 5.7 42.2
19:50 1017 30.03 846 24.98 22.5 72.6 33 5.8 42.5
19:55 1017 30.03 847 25.01 22.3 72.2 34 5.8 42.5
20:00 1017 30.03 846 24.98 22.3 72.1 34 5.9 42.5
20:05 1017 30.03 847 25.01 22 71.7 35 6.1 43
20:10 1017 30.03 847 25.01 21.9 71.5 35 5.9 42.6
20:15 1017 30.03 847 25.01 21.9 71.4 35 6.1 43
20:20 1017 30.03 847 25.01 21.7 71.1 37 6.7 44.1
20:25 1017 30.03 847 25.01 21.4 70.6 37 6.4 43.5
20:30 1017 30.03 847 25.01 21.3 70.4 37 6.3 43.3
20:35 1017 30.03 847 25.01 21.3 70.4 35 5.6 42
20:40 1017 30.03 847 25.01 21.4 70.5 36 5.9 42.5
20:45 1018 30.06 847 25.01 21.4 70.5 36 5.7 42.3
20:50 1018 30.06 847 25.01 21.4 70.5 35 5.4 41.7
20:55 1018 30.06 847 25.01 21.5 70.8 34 5 41.1
21:00 1018 30.06 847 25.01 21.6 70.8 34 5 41.1
21:05 1018 30.06 847 25.01 21.5 70.7 34 5 41
21:10 1018 30.06 847 25.01 21.4 70.6 34 5.3 41.6
21:15 1018 30.06 847 25.01 21.2 70.1 37 6.1 43
21:20 1018 30.06 847 25.01 20.6 69 40 6.7 44.1
21:25 1018 30.06 847 25.01 20.2 68.3 41 6.5 43.7
21:30 1018 30.06 847 25.01 20.2 68.4 39 6 42.8
21:35 1018 30.06 847 25.01 20.3 68.5 39 5.9 42.7
21:40 1018 30.06 847 25.01 20.3 68.5 39 6 42.7
21:45 1018 30.06 847 25.01 20.2 68.3 40 6.2 43.1
21:50 1018 30.06 847 25.01 20 67.9 41 6.3 43.4
21:55 1018 30.06 847 25.01 19.8 67.7 40 6.1 42.9
22:00 1018 30.06 847 25.01 19.7 67.5 41 6.1 43
22:05 1018 30.06 847 25.01 19.6 67.2 41 6.3 43.3
22:10 1018 30.06 847 25.01 19.5 67.2 40 5.9 42.5
22:15 1018 30.06 848 25.04 19.6 67.2 40 5.9 42.6
22:20 1018 30.06 848 25.04 19.3 66.8 42 6.1 43.1
22:25 1018 30.06 848 25.04 19.3 66.8 41 5.8 42.4
22:30 1019 30.09 848 25.04 19.1 66.4 45 6.9 44.5
22:35 1019 30.09 848 25.04 18.4 65.1 50 7.8 46
22:40 1019 30.09 848 25.04 17.6 63.6 52 7.8 46.1
22:45 1019 30.09 848 25.04 17.2 63 54 7.9 46.2
22:50 1019 30.09 848 25.04 17 62.5 55 8 46.3
22:55 1019 30.09 848 25.04 16.8 62.2 56 7.9 46.2
23:00 1019 30.09 848 25.04 16.8 62.2 53 7.2 44.9
23:05 1019 30.09 848 25.04 17.3 63.2 50 7 44.6
23:10 1019 30.09 848 25.04 17.4 63.3 49 6.7 44
23:15 1019 30.09 848 25.04 17.9 64.1 46 6.2 43.2
23:20 1019 30.09 848 25.04 18.1 64.6 47 6.7 44.1
23:25 1019 30.09 848 25.04 17.9 64.3 48 6.9 44.4
23:30 1019 30.09 848 25.04 17.7 63.8 49 6.8 44.3
23:35 1019 30.09 848 25.04 17.9 64.2 48 6.7 44.1
23:40 1019 30.09 848 25.04 18 64.3 48 7 44.7
23:45 1019 30.09 848 25.04 17.6 63.7 50 7.3 45.1
23:50 1019 30.09 848 25.04 17.2 63 51 7.2 45
23:55 1019 30.09 848 25.04 16.8 62.3 53 7.3 45.1
24:00 1019 30.09 848 25.04 16.2 61.2 56 7.6 45.7